Fairpartner — PHEC — position and weather

sailwx.info

Track history (hours):
 
Tides and Currents Weather Stations Pressure Air Temp Water Temp Dewpoint Dewpoint Depression Visibility Wind Speed Wind Dir Waves Ship Positions

Fairpartner

Last reported at 2015-Jun-27 11:33 UTC. Time now 2015-Jul-04 13:34 UTC.
Position N 31°23' E 032°16'.

Length 143 m; beam 27 m.

Type: Cargo ship. MMSI: 246466992.

Date/timePositionNaut miles runAvg speedWind from/ knotsBaromVisibWave heightAir tempDewpointWater temp
2015-Jun-27 11:33N 31°23' E 032°16'5 4.9
2015-Jun-27 10:32N 31°27' E 032°14'1414.4
2015-Jun-27 09:33N 31°39' E 032°04'1914.9
2015-Jun-27 08:18N 31°49' E 031°46'13214.3
2015-Jun-26 23:04N 32°43' E 029°23'815.0
2015-Jun-26 22:32N 32°46' E 029°14'70615.3
2015-Jun-25 00:17N 37°40' E 016°08'1114.3
2015-Jun-24 23:31N 37°45' E 015°56'1414.4
2015-Jun-24 22:33N 37°52' E 015°40'1414.2
2015-Jun-24 21:33N 38°05' E 015°35'1313.1
2015-Jun-24 20:33N 38°17' E 015°41'7 6.9
2015-Jun-24 19:33N 38°23' E 015°36'1110.9
2015-Jun-24 18:33N 38°30' E 015°25'1515.3
2015-Jun-24 17:33N 38°41' E 015°11'1716.4
2015-Jun-24 16:32N 38°52' E 014°55'6715.6
2015-Jun-24 12:15N 39°37' E 013°52'1115.5
2015-Jun-24 11:31N 39°44' E 013°40'17515.4
2015-Jun-24 00:09N 41°44' E 010°52'7615.4
2015-Jun-23 19:15N 42°43' E 009°48'715.3
2015-Jun-23 18:48N 42°50' E 009°45'102 4.4
2015-Jun-22 19:32N 44°24' E 008°54'0 0.0
2015-Jun-22 18:34N 44°24' E 008°54'7 7.1
2015-Jun-22 17:33N 44°17' E 008°56'1616.2
2015-Jun-22 16:33N 44°06' E 008°40'1616.4
2015-Jun-22 15:33N 43°55' E 008°23'12515.6
2015-Jun-22 07:33N 42°38' E 006°09'1616.1
2015-Jun-22 06:33N 42°30' E 005°49'1616.3
2015-Jun-22 05:33N 42°22' E 005°30'1616.4
2015-Jun-22 04:33N 42°15' E 005°10'1716.5
2015-Jun-22 03:33N 42°07' E 004°51'1616.4
2015-Jun-22 02:33N 41°59' E 004°31'1716.7
2015-Jun-22 01:33N 41°52' E 004°11'1716.8
2015-Jun-22 00:33N 41°45' E 003°50'1616.3
2015-Jun-21 23:33N 41°38' E 003°31'1615.9
2015-Jun-21 22:33N 41°32' E 003°11'1615.7
2015-Jun-21 21:33N 41°25' E 002°52'1615.9
2015-Jun-21 20:33N 41°19' E 002°33'1716.2
2015-Jun-21 19:31N 41°12' E 002°12'1616.3
2015-Jun-21 18:33N 41°09' E 001°52'1616.5
2015-Jun-21 17:33N 41°06' E 001°31'1310.0
2015-Jun-21 16:17N 41°06' E 001°14'1 0.8
2015-Jun-21 15:29N 41°06' E 001°15'0 0.0
2015-Jun-21 14:17N 41°06' E 001°15'0 0.0
2015-Jun-21 13:17N 41°06' E 001°15'0 0.0
2015-Jun-21 12:29N 41°06' E 001°15'0 0.0
2015-Jun-21 11:23N 41°06' E 001°15'0 0.0
2015-Jun-21 10:29N 41°06' E 001°15'0 0.0
2015-Jun-21 09:29N 41°06' E 001°15'0 0.0
2015-Jun-21 08:11N 41°06' E 001°15'0 0.0
2015-Jun-21 07:29N 41°06' E 001°15'0 0.0
2015-Jun-21 05:29N 41°06' E 001°15'0 0.0
2015-Jun-21 04:23N 41°06' E 001°15'0 0.0
2015-Jun-21 03:17N 41°06' E 001°15'0 0.0
2015-Jun-21 02:23N 41°06' E 001°15'0 0.0
2015-Jun-21 01:29N 41°06' E 001°15'0 0.0
2015-Jun-21 00:29N 41°06' E 001°15'0 0.0
2015-Jun-20 22:29N 41°06' E 001°15'0 0.0
2015-Jun-20 21:29N 41°06' E 001°15'0 0.0
2015-Jun-20 20:29N 41°06' E 001°15'0 0.0
2015-Jun-20 19:05N 41°06' E 001°15'0 0.0
2015-Jun-20 18:23N 41°06' E 001°15'0 0.0
2015-Jun-20 17:11N 41°06' E 001°15'0 0.0
2015-Jun-20 16:29N 41°06' E 001°15'0 0.0
2015-Jun-20 15:32N 41°06' E 001°15'0 0.0
2015-Jun-20 14:32N 41°06' E 001°15'0 0.0
2015-Jun-20 13:32N 41°06' E 001°15'0 0.0
2015-Jun-20 12:23N 41°06' E 001°15'0 0.0
2015-Jun-20 05:29N 41°06' E 001°15'0 0.0
2015-Jun-20 03:23N 41°06' E 001°15'0 0.0
2015-Jun-20 02:23N 41°06' E 001°15'0 0.0
2015-Jun-20 00:23N 41°06' E 001°15'0 0.0
2015-Jun-19 23:29N 41°06' E 001°15'0 0.0
2015-Jun-19 22:29N 41°06' E 001°15'0 0.0
2015-Jun-19 21:23N 41°06' E 001°15'0 0.0
2015-Jun-19 20:23N 41°06' E 001°15'0 0.0
2015-Jun-19 19:29N 41°06' E 001°15'0 0.0
2015-Jun-19 16:05N 41°06' E 001°15'0 0.0
2015-Jun-19 15:23N 41°06' E 001°15'0 0.0
2015-Jun-19 14:29N 41°06' E 001°15'0 0.0
2015-Jun-19 11:29N 41°06' E 001°15'0 0.0
2015-Jun-19 07:23N 41°06' E 001°15'0 0.0
2015-Jun-19 04:23N 41°06' E 001°15'0 0.0
2015-Jun-19 01:23N 41°06' E 001°15'0 0.0
2015-Jun-19 00:05N 41°06' E 001°15'0 0.0
2015-Jun-18 23:23N 41°06' E 001°15'0 0.0
2015-Jun-18 22:29N 41°06' E 001°15'0 0.0
2015-Jun-18 21:29N 41°06' E 001°15'0 0.0
2015-Jun-18 20:26N 41°06' E 001°15'0 0.0
2015-Jun-18 19:29N 41°06' E 001°15'0 0.0
2015-Jun-18 18:23N 41°06' E 001°15'0 0.0
2015-Jun-18 17:23N 41°06' E 001°15'0 0.0
2015-Jun-18 15:05N 41°06' E 001°15'0 0.0
2015-Jun-18 14:23N 41°06' E 001°15'0 0.0
2015-Jun-18 13:23N 41°06' E 001°15'0 0.0
2015-Jun-18 12:25N 41°06' E 001°15'0 0.0
2015-Jun-18 09:17N 41°06' E 001°15'0 0.0
2015-Jun-18 08:29N 41°06' E 001°15'0 0.0
2015-Jun-18 07:29N 41°06' E 001°15'0 0.0
2015-Jun-18 06:05N 41°06' E 001°15'0 0.0
2015-Jun-18 03:05N 41°06' E 001°15'0 0.0
2015-Jun-18 02:23N 41°06' E 001°15'0 0.0
2015-Jun-18 01:23N 41°06' E 001°15'0 0.0
2015-Jun-18 00:23N 41°06' E 001°15'0 0.0
2015-Jun-17 18:29N 41°06' E 001°15'0 0.0
2015-Jun-17 17:20N 41°06' E 001°15'0 0.0
2015-Jun-17 16:32N 41°06' E 001°15'0 0.0
2015-Jun-17 15:29N 41°06' E 001°15'0 0.0
2015-Jun-17 14:17N 41°06' E 001°15'  
Track history (hours):
 
Tides and Currents Weather Stations Pressure Air Temp Water Temp Dewpoint Dewpoint Depression Visibility Wind Speed Wind Dir Waves Ship Positions

Fairpartner

Last reported at 2015-Jun-27 11:33 UTC. Time now 2015-Jul-04 13:34 UTC.
Position N 31°23' E 032°16'.

Length 143 m; beam 27 m.

Type: Cargo ship. MMSI: 246466992.

Date/timePositionNaut miles runAvg speedWind from/ knotsBaromVisibWave heightAir tempDewpointWater temp
2015-Jun-27 11:33N 31°23' E 032°16'5 4.9
2015-Jun-27 10:32N 31°27' E 032°14'1414.4
2015-Jun-27 09:33N 31°39' E 032°04'1914.9
2015-Jun-27 08:18N 31°49' E 031°46'13214.3
2015-Jun-26 23:04N 32°43' E 029°23'815.0
2015-Jun-26 22:32N 32°46' E 029°14'70615.3
2015-Jun-25 00:17N 37°40' E 016°08'1114.3
2015-Jun-24 23:31N 37°45' E 015°56'1414.4
2015-Jun-24 22:33N 37°52' E 015°40'1414.2
2015-Jun-24 21:33N 38°05' E 015°35'1313.1
2015-Jun-24 20:33N 38°17' E 015°41'7 6.9
2015-Jun-24 19:33N 38°23' E 015°36'1110.9
2015-Jun-24 18:33N 38°30' E 015°25'1515.3
2015-Jun-24 17:33N 38°41' E 015°11'1716.4
2015-Jun-24 16:32N 38°52' E 014°55'6715.6
2015-Jun-24 12:15N 39°37' E 013°52'1115.5
2015-Jun-24 11:31N 39°44' E 013°40'17515.4
2015-Jun-24 00:09N 41°44' E 010°52'7615.4
2015-Jun-23 19:15N 42°43' E 009°48'715.3
2015-Jun-23 18:48N 42°50' E 009°45'102 4.4
2015-Jun-22 19:32N 44°24' E 008°54'0 0.0
2015-Jun-22 18:34N 44°24' E 008°54'7 7.1
2015-Jun-22 17:33N 44°17' E 008°56'1616.2
2015-Jun-22 16:33N 44°06' E 008°40'1616.4
2015-Jun-22 15:33N 43°55' E 008°23'12515.6
2015-Jun-22 07:33N 42°38' E 006°09'1616.1
2015-Jun-22 06:33N 42°30' E 005°49'1616.3
2015-Jun-22 05:33N 42°22' E 005°30'1616.4
2015-Jun-22 04:33N 42°15' E 005°10'1716.5
2015-Jun-22 03:33N 42°07' E 004°51'1616.4
2015-Jun-22 02:33N 41°59' E 004°31'1716.7
2015-Jun-22 01:33N 41°52' E 004°11'1716.8
2015-Jun-22 00:33N 41°45' E 003°50'1616.3
2015-Jun-21 23:33N 41°38' E 003°31'1615.9
2015-Jun-21 22:33N 41°32' E 003°11'1615.7
2015-Jun-21 21:33N 41°25' E 002°52'1615.9
2015-Jun-21 20:33N 41°19' E 002°33'1716.2
2015-Jun-21 19:31N 41°12' E 002°12'1616.3
2015-Jun-21 18:33N 41°09' E 001°52'1616.5
2015-Jun-21 17:33N 41°06' E 001°31'1310.0
2015-Jun-21 16:17N 41°06' E 001°14'1 0.8
2015-Jun-21 15:29N 41°06' E 001°15'0 0.0
2015-Jun-21 14:17N 41°06' E 001°15'0 0.0
2015-Jun-21 13:17N 41°06' E 001°15'0 0.0
2015-Jun-21 12:29N 41°06' E 001°15'0 0.0
2015-Jun-21 11:23N 41°06' E 001°15'0 0.0
2015-Jun-21 10:29N 41°06' E 001°15'0 0.0
2015-Jun-21 09:29N 41°06' E 001°15'0 0.0
2015-Jun-21 08:11N 41°06' E 001°15'0 0.0
2015-Jun-21 07:29N 41°06' E 001°15'0 0.0
2015-Jun-21 05:29N 41°06' E 001°15'0 0.0
2015-Jun-21 04:23N 41°06' E 001°15'0 0.0
2015-Jun-21 03:17N 41°06' E 001°15'0 0.0
2015-Jun-21 02:23N 41°06' E 001°15'0 0.0
2015-Jun-21 01:29N 41°06' E 001°15'0 0.0
2015-Jun-21 00:29N 41°06' E 001°15'0 0.0
2015-Jun-20 22:29N 41°06' E 001°15'0 0.0
2015-Jun-20 21:29N 41°06' E 001°15'0 0.0
2015-Jun-20 20:29N 41°06' E 001°15'0 0.0
2015-Jun-20 19:05N 41°06' E 001°15'0 0.0
2015-Jun-20 18:23N 41°06' E 001°15'0 0.0
2015-Jun-20 17:11N 41°06' E 001°15'0 0.0
2015-Jun-20 16:29N 41°06' E 001°15'0 0.0
2015-Jun-20 15:32N 41°06' E 001°15'0 0.0
2015-Jun-20 14:32N 41°06' E 001°15'0 0.0
2015-Jun-20 13:32N 41°06' E 001°15'0 0.0
2015-Jun-20 12:23N 41°06' E 001°15'0 0.0
2015-Jun-20 05:29N 41°06' E 001°15'0 0.0
2015-Jun-20 03:23N 41°06' E 001°15'0 0.0
2015-Jun-20 02:23N 41°06' E 001°15'0 0.0
2015-Jun-20 00:23N 41°06' E 001°15'0 0.0
2015-Jun-19 23:29N 41°06' E 001°15'0 0.0
2015-Jun-19 22:29N 41°06' E 001°15'0 0.0
2015-Jun-19 21:23N 41°06' E 001°15'0 0.0
2015-Jun-19 20:23N 41°06' E 001°15'0 0.0
2015-Jun-19 19:29N 41°06' E 001°15'0 0.0
2015-Jun-19 16:05N 41°06' E 001°15'0 0.0
2015-Jun-19 15:23N 41°06' E 001°15'0 0.0
2015-Jun-19 14:29N 41°06' E 001°15'0 0.0
2015-Jun-19 11:29N 41°06' E 001°15'0 0.0
2015-Jun-19 07:23N 41°06' E 001°15'0 0.0
2015-Jun-19 04:23N 41°06' E 001°15'0 0.0
2015-Jun-19 01:23N 41°06' E 001°15'0 0.0
2015-Jun-19 00:05N 41°06' E 001°15'0 0.0
2015-Jun-18 23:23N 41°06' E 001°15'0 0.0
2015-Jun-18 22:29N 41°06' E 001°15'0 0.0
2015-Jun-18 21:29N 41°06' E 001°15'0 0.0
2015-Jun-18 20:26N 41°06' E 001°15'0 0.0
2015-Jun-18 19:29N 41°06' E 001°15'0 0.0
2015-Jun-18 18:23N 41°06' E 001°15'0 0.0
2015-Jun-18 17:23N 41°06' E 001°15'0 0.0
2015-Jun-18 15:05N 41°06' E 001°15'0 0.0
2015-Jun-18 14:23N 41°06' E 001°15'0 0.0
2015-Jun-18 13:23N 41°06' E 001°15'0 0.0
2015-Jun-18 12:25N 41°06' E 001°15'0 0.0
2015-Jun-18 09:17N 41°06' E 001°15'0 0.0
2015-Jun-18 08:29N 41°06' E 001°15'0 0.0
2015-Jun-18 07:29N 41°06' E 001°15'0 0.0
2015-Jun-18 06:05N 41°06' E 001°15'0 0.0
2015-Jun-18 03:05N 41°06' E 001°15'0 0.0
2015-Jun-18 02:23N 41°06' E 001°15'0 0.0
2015-Jun-18 01:23N 41°06' E 001°15'0 0.0
2015-Jun-18 00:23N 41°06' E 001°15'0 0.0
2015-Jun-17 18:29N 41°06' E 001°15'0 0.0
2015-Jun-17 17:20N 41°06' E 001°15'0 0.0
2015-Jun-17 16:32N 41°06' E 001°15'0 0.0
2015-Jun-17 15:29N 41°06' E 001°15'0 0.0
2015-Jun-17 14:17N 41°06' E 001°15'  

Dump ship's entire track history